Latest Weather Observations for Dalby

IDQ60801

Issued at 10:52 pm EST Monday 22 April 2019 (issued every 10 minutes, with the page automatically refreshed every 10 minutes)

About weather observations | Map of weather stations | Latest weather observations for QLD | Other Formats
Station Details ID: 041522 Name: DALBY AIRPORT Lat: -27.16 Lon: 151.26 Height: 343.9 m
Data from the previous 72 hours. | See also: Recent months at Dalby
Date/Time
EST
Temp
°C
App
Temp
°C
Dew
Point
°C
Rel
Hum
%
Delta-T
°C
Wind Press
QNH
hPa
Press
MSL
hPa
Rain since
9am
mm
Dir  Spd
km/h
Gust
km/h
Spd
kts
Gust
kts
22/10:30pm 19.1 17.1 15.0 77 2.4 E 19 22 10 12 1022.9 1021.7 0.0
22/10:00pm 19.4 17.3 15.1 76 2.6 E 20 26 11 14 1022.7 1021.5 0.0
22/09:30pm 19.6 17.7 15.3 76 2.6 E 19 22 10 12 1022.8 1021.6 0.0
22/09:00pm 20.0 18.0 15.4 75 2.8 ENE 20 26 11 14 1022.7 1021.5 0.0
22/08:30pm 20.1 16.8 15.1 73 3.0 E 26 33 14 18 1022.6 1021.4 0.0
22/08:00pm 20.5 17.9 14.8 70 3.4 E 22 30 12 16 1022.3 1021.1 0.0
22/07:30pm 20.6 18.3 14.7 69 3.5 E 20 26 11 14 1022.1 1020.9 0.0
22/07:00pm 21.2 18.5 14.6 66 3.9 ENE 22 30 12 16 1021.4 1020.1 0.0
22/06:30pm 21.8 18.8 14.9 65 4.1 ENE 24 33 13 18 1021.0 1019.7 0.0
22/06:00pm 22.6 18.9 13.9 58 5.1 E 26 33 14 18 1020.6 1019.4 0.0
22/05:30pm 23.2 20.3 12.8 52 6.1 ENE 20 26 11 14 1020.0 1018.8 0.0
22/05:00pm 23.9 20.2 12.8 49 6.5 ENE 24 32 13 17 1019.8 1018.6 0.0
22/04:30pm 24.5 20.6 12.1 46 7.2 E 24 35 13 19 1019.4 1018.2 0.0
22/04:00pm 25.0 20.1 12.6 46 7.2 E 30 37 16 20 1019.3 1018.1 0.0
22/03:30pm 25.1 21.0 12.7 46 7.3 E 26 35 14 19 1019.2 1018.0 0.0
22/03:00pm 25.6 20.9 12.1 43 7.8 E 28 37 15 20 1019.1 1017.9 0.0
22/02:30pm 25.9 20.8 12.0 42 8.1 E 30 43 16 23 1019.2 1018.0 0.0
22/02:00pm 26.5 22.6 12.2 41 8.4 ENE 24 35 13 19 1019.2 1018.0 0.0
22/01:30pm 26.8 22.8 10.5 36 9.3 ENE 22 32 12 17 1019.6 1018.4 0.0
22/01:00pm 26.1 21.8 10.7 38 8.8 E 24 32 13 17 1020.0 1018.8 0.0
22/12:30pm 25.3 21.1 11.1 41 8.1 ENE 24 39 13 21 1020.3 1019.1 0.0
22/12:00pm 25.0 20.3 11.9 44 7.6 ENE 28 39 15 21 1020.7 1019.5 0.0
22/11:30am 23.4 18.9 12.7 51 6.2 E 28 37 15 20 1021.2 1019.9 0.0
22/11:00am 23.6 19.2 12.9 51 6.2 E 28 41 15 22 1021.5 1020.3 0.0
22/10:30am 22.8 18.4 13.0 54 5.7 E 28 37 15 20 1021.6 1020.4 0.0
22/10:00am 22.5 17.6 13.6 57 5.2 E 32 43 17 23 1021.4 1020.1 0.0
22/09:30am 22.1 18.8 14.0 60 4.8 E 24 33 13 18 1021.8 1020.6 0.0
22/09:00am 21.6 19.2 14.5 64 4.2 ESE 20 28 11 15 1021.7 1020.5 0.0
22/08:30am 20.6 18.1 15.2 71 3.2 ESE 22 30 12 16 1021.6 1020.4 0.0
22/08:00am 19.8 17.8 15.0 74 2.9 ESE 19 24 10 13 1021.5 1020.3 0.0
22/07:30am 18.6 18.0 14.7 78 2.3 SE 11 15 6 8 1021.7 1020.5 0.0
22/07:00am 17.9 16.5 14.6 81 1.9 SE 15 19 8 10 1021.4 1020.1 0.0
22/06:30am 17.7 15.8 14.2 80 2.0 ESE 17 22 9 12 1020.7 1019.5 0.0
22/06:00am 17.9 15.5 13.8 77 2.4 SE 19 24 10 13 1020.5 1019.3 0.0
22/05:30am 17.6 16.3 13.7 78 2.2 SE 13 17 7 9 1020.3 1019.1 0.0
22/05:00am 17.7 15.3 13.8 78 2.2 SE 19 24 10 13 1020.1 1018.9 0.0
22/04:30am 17.5 15.7 13.4 77 2.4 SSE 15 17 8 9 1020.2 1019.0 0.0
22/04:00am 17.4 16.0 13.3 77 2.3 SSE 13 19 7 10 1020.3 1019.1 0.0
22/03:30am 17.9 16.2 13.6 76 2.5 SE 15 19 8 10 1020.2 1019.0 0.0
22/03:00am 17.6 17.4 13.7 78 2.2 SSE 7 11 4 6 1020.4 1019.2 0.0
22/02:30am 17.5 16.6 13.6 78 2.2 S 11 13 6 7 1020.3 1019.1 0.0
22/02:00am 16.9 16.2 13.2 79 2.1 SSE 9 13 5 7 1020.4 1019.2 0.0
22/01:30am 17.0 15.6 13.5 80 2.0 SE 13 15 7 8 1020.3 1019.1 0.0
22/01:00am 16.8 15.3 13.1 79 2.1 SE 13 17 7 9 1020.7 1019.5 0.0
22/12:30am 17.0 15.4 12.7 76 2.4 SE 13 15 7 8 1021.0 1019.7 0.0
22/12:00am 17.9 17.3 13.4 75 2.6 SE 9 15 5 8 1021.5 1020.3 0.0
 
Date/Time
EST
Temp
°C
App
Temp
°C
Dew
Point
°C
Rel
Hum
%
Delta-T
°C
Wind Press
QNH
hPa
Press
MSL
hPa
Rain since
9am
mm
Dir  Spd
km/h
Gust
km/h
Spd
kts
Gust
kts
21/11:30pm 17.8 16.2 12.9 73 2.8 ESE 13 15 7 8 1021.7 1020.5 0.0
21/11:00pm 18.8 16.5 13.0 69 3.3 E 17 20 9 11 1021.7 1020.5 0.0
21/10:30pm 19.5 16.6 12.8 65 3.8 E 20 26 11 14 1022.2 1021.0 0.0
21/10:00pm 19.6 16.6 12.6 64 4.0 E 20 26 11 14 1022.3 1021.1 0.0
21/09:30pm 20.0 16.6 12.5 62 4.3 E 22 30 12 16 1022.3 1021.1 0.0
21/09:00pm 19.6 17.6 12.6 64 4.0 E 15 17 8 9 1022.3 1021.1 0.0
21/08:30pm 19.0 16.5 12.3 65 3.8 E 17 20 9 11 1022.0 1020.8 0.0
21/08:00pm 19.4 16.5 12.2 63 4.1 E 19 22 10 12 1021.7 1020.5 0.0
21/07:30pm 19.9 16.9 12.4 62 4.3 E 20 24 11 13 1021.3 1020.0 0.0
21/07:00pm 20.9 17.2 12.6 59 4.8 E 24 32 13 17 1021.1 1019.8 0.0
21/06:30pm 21.6 18.0 13.2 59 4.9 E 24 32 13 17 1020.8 1019.6 0.0
21/06:00pm 22.5 18.9 13.0 55 5.5 E 24 33 13 18 1020.4 1019.2 0.0
21/05:30pm 23.2 18.7 13.7 55 5.6 E 30 39 16 21 1020.2 1019.0 0.0
21/05:00pm 24.5 20.6 13.4 50 6.6 ENE 26 35 14 19 1019.8 1018.6 0.0
21/04:30pm 24.6 20.3 13.2 49 6.7 ENE 28 35 15 19 1019.6 1018.4 0.0
21/04:00pm 24.7 19.8 13.6 50 6.6 ENE 32 39 17 21 1019.4 1018.2 0.0
21/03:30pm 25.8 21.2 13.6 47 7.3 E 30 41 16 22 1019.1 1017.9 0.0
21/03:00pm 26.5 21.5 13.3 44 7.8 ENE 32 41 17 22 1019.0 1017.8 0.0
21/02:30pm 25.9 20.4 12.0 42 8.1 E 32 43 17 23 1019.0 1017.8 0.0
21/02:00pm 27.5 22.9 12.3 39 8.9 E 28 39 15 21 1018.9 1017.7 0.0
21/01:30pm 26.0 20.5 10.6 38 8.8 E 30 43 16 23 1019.3 1018.1 0.0
21/01:12pm 26.7 21.8 11.2 38 8.9 E 28 46 15 25 1019.5 1018.3 0.0
21/01:00pm 26.6 22.0 12.3 41 8.4 E 28 39 15 21 1019.7 1018.5 0.0
21/12:30pm 26.0 20.7 12.5 43 7.9 E 32 41 17 22 1020.0 1018.8 0.0
21/12:00pm 26.8 21.7 13.2 43 8.1 E 32 41 17 22 1020.4 1019.2 0.0
21/11:30am 26.1 21.1 12.2 42 8.1 E 30 44 16 24 1020.8 1019.6 0.0
21/11:00am 25.4 20.0 12.3 44 7.6 E 32 41 17 22 1021.2 1019.9 0.0
21/10:30am 24.7 18.6 11.6 44 7.5 ESE 35 48 19 26 1021.6 1020.4 0.0
21/10:00am 24.6 19.4 11.5 44 7.5 ESE 30 44 16 24 1022.0 1020.8 0.0
21/09:30am 24.1 18.5 13.3 51 6.4 ESE 35 44 19 24 1022.1 1020.9 0.0
21/09:00am 23.4 18.0 13.8 54 5.7 E 35 46 19 25 1022.1 1020.9 0.0
21/08:30am 22.5 17.3 14.4 60 4.8 E 35 43 19 23 1022.0 1020.8 0.0
21/08:00am 20.7 16.6 14.8 69 3.5 E 30 37 16 20 1022.0 1020.8 0.0
21/07:30am 20.2 18.1 15.2 73 3.0 E 20 28 11 15 1022.0 1020.8 0.0
21/07:00am 19.2 17.2 15.5 79 2.2 ESE 20 26 11 14 1021.9 1020.7 0.0
21/06:30am 18.8 17.0 15.9 83 1.7 ESE 20 30 11 16 1021.8 1020.6 0.0
21/06:00am 18.4 17.5 15.8 85 1.6 ESE 15 19 8 10 1021.2 1019.9 0.0
21/05:30am 17.6 15.7 15.2 86 1.4 SE 19 24 10 13 1021.0 1019.7 0.0
21/05:00am 17.7 16.5 15.1 85 1.5 SSE 15 17 8 9 1020.7 1019.5 0.0
21/04:30am 17.3 16.4 14.8 85 1.5 SE 13 15 7 8 1020.5 1019.3 0.0
21/04:00am 17.8 16.5 14.9 83 1.7 SE 15 19 8 10 1020.4 1019.2 0.0
21/03:30am 18.8 17.4 15.5 81 2.0 ESE 17 20 9 11 1020.3 1019.1 0.0
21/03:00am 18.9 16.9 15.6 81 2.0 ESE 20 26 11 14 1020.2 1019.0 0.0
21/02:30am 18.9 16.9 15.6 81 2.0 SE 20 26 11 14 1020.4 1019.2 0.0
21/02:00am 19.0 17.7 15.7 81 2.0 SE 17 24 9 13 1020.6 1019.4 0.0
21/01:30am 18.8 17.1 15.7 82 1.9 SE 19 26 10 14 1020.6 1019.4 0.0
21/01:00am 19.0 17.7 15.7 81 2.0 SE 17 20 9 11 1020.8 1019.6 0.0
21/12:30am 19.0 17.3 15.7 81 2.0 SE 19 22 10 12 1020.8 1019.6 0.0
21/12:00am 19.2 17.3 15.3 78 2.3 ESE 19 26 10 14 1021.2 1019.9 0.0
 
Date/Time
EST
Temp
°C
App
Temp
°C
Dew
Point
°C
Rel
Hum
%
Delta-T
°C
Wind Press
QNH
hPa
Press
MSL
hPa
Rain since
9am
mm
Dir  Spd
km/h
Gust
km/h
Spd
kts
Gust
kts
20/11:30pm 19.1 17.3 15.4 79 2.2 ESE 19 24 10 13 1021.4 1020.1 0.0
20/11:00pm 18.9 17.1 15.6 81 2.0 ESE 19 24 10 13 1021.7 1020.5 0.0
20/10:30pm 19.5 17.2 15.8 79 2.2 ESE 22 28 12 15 1021.8 1020.6 0.0
20/10:00pm 19.9 17.8 16.3 80 2.2 ESE 22 30 12 16 1022.0 1020.8 0.0
20/09:30pm 19.6 18.0 16.1 80 2.1 ESE 19 26 10 14 1022.0 1020.8 0.0
20/09:00pm 19.9 17.3 16.0 78 2.4 ESE 24 30 13 16 1021.8 1020.6 0.0
20/08:30pm 20.2 17.6 16.0 77 2.5 ESE 24 33 13 18 1021.8 1020.6 0.0
20/08:00pm 20.2 18.3 15.8 76 2.7 SE 20 28 11 15 1021.9 1020.7 0.0
20/07:30pm 20.2 17.9 15.6 75 2.8 ESE 22 28 12 15 1021.6 1020.4 0.0
20/07:00pm 20.6 17.8 15.4 72 3.1 ESE 24 30 13 16 1021.3 1020.0 0.0
20/06:30pm 21.3 18.3 14.9 67 3.8 ESE 24 30 13 16 1020.8 1019.6 0.0
20/06:00pm 21.8 18.8 14.7 64 4.2 ESE 24 35 13 19 1020.6 1019.4 0.0
20/05:30pm 22.4 18.3 15.0 63 4.5 ESE 30 41 16 22 1020.5 1019.3 0.0
20/05:00pm 23.7 19.2 14.9 57 5.3 ESE 32 44 17 24 1020.2 1019.0 0.0
20/04:30pm 24.6 19.7 14.4 53 6.1 E 33 44 18 24 1019.9 1018.7 0.0
20/04:00pm 25.1 20.5 15.1 53 6.1 ESE 33 41 18 22 1019.9 1018.7 0.0
20/03:40pm 26.3 21.4 14.4 48 7.2 E 33 54 18 29 1019.7 1018.5 0.0
20/03:30pm 26.6 21.5 14.7 48 7.3 E 35 43 19 23 1019.7 1018.5 0.0
20/03:00pm 26.4 20.4 14.5 48 7.2 E 39 48 21 26 1019.7 1018.5 0.0
20/02:30pm 26.8 22.4 15.2 49 7.1 ESE 32 39 17 21 1019.6 1018.4 0.0
20/02:07pm 26.8 21.5 14.2 46 7.6 ESE 35 46 19 25 1019.7 1018.5 0.0
20/02:00pm 28.2 23.8 15.1 44 8.1 E 32 43 17 23 1019.7 1018.5 0.0
20/01:30pm 27.1 22.6 14.8 47 7.5 ESE 32 41 17 22 1019.9 1018.7 0.0
20/01:00pm 27.7 22.4 12.5 39 9.0 E 32 44 17 24 1020.1 1018.9 0.0
20/12:30pm 26.8 21.6 13.5 44 8.0 E 33 46 18 25 1020.6 1019.4 0.0
20/12:00pm 26.6 20.5 13.0 43 8.0 E 37 46 20 25 1021.1 1019.8 0.0
20/11:30am 26.1 21.3 13.9 47 7.3 E 32 41 17 22 1021.5 1020.3 0.0
20/11:00am 25.3 19.5 13.8 49 6.9 E 37 50 20 27 1021.9 1020.7 0.0
20/10:30am 25.7 20.7 15.1 52 6.5 E 35 46 19 25 1022.2 1021.0 0.0
20/10:00am 25.7 21.0 14.8 51 6.6 E 33 48 18 26 1022.5 1021.3 0.0
20/09:30am 23.5 18.9 15.0 59 5.1 E 33 44 18 24 1022.7 1021.5 0.0
20/09:00am 23.3 19.1 15.6 62 4.7 ESE 32 43 17 23 1022.8 1021.6 0.0
20/08:30am 22.7 18.2 16.3 67 3.9 ESE 35 43 19 23 1022.8 1021.6 0.0
20/08:00am 21.2 17.8 15.7 71 3.3 ESE 28 39 15 21 1022.5 1021.3 0.0
20/07:30am 20.2 18.0 16.0 77 2.5 ESE 22 33 12 18 1022.3 1021.1 0.0
20/07:00am 18.5 16.7 15.6 83 1.7 ESE 19 24 10 13 1022.2 1021.0 0.0
20/06:30am 17.2 15.9 14.8 86 1.4 ESE 15 20 8 11 1022.0 1020.8 0.0
20/06:00am 17.6 16.3 14.9 84 1.6 SE 15 19 8 10 1021.6 1020.4 0.0
20/05:30am 17.7 16.0 14.8 83 1.7 SE 17 20 9 11 1021.5 1020.3 0.0
20/05:00am 18.1 16.2 15.2 83 1.7 SE 19 24 10 13 1021.3 1020.0 0.0
20/04:30am 18.4 16.6 15.5 83 1.7 SE 19 26 10 14 1021.2 1019.9 0.0
20/04:00am 18.4 16.4 15.6 84 1.7 SE 20 24 11 13 1021.0 1019.7 0.0
20/03:30am 18.3 16.9 15.6 84 1.6 SE 17 20 9 11 1021.1 1019.8 0.0
20/03:00am 18.9 17.7 16.1 84 1.7 SE 17 20 9 11 1021.2 1019.9 0.0
20/02:30am 18.7 17.4 15.8 83 1.7 SE 17 20 9 11 1021.3 1020.0 0.0
20/02:00am 18.5 17.2 15.7 84 1.7 SE 17 20 9 11 1021.5 1020.3 0.0
20/01:30am 18.4 17.8 15.6 84 1.7 SE 13 19 7 10 1021.8 1020.6 0.0
20/01:00am 18.7 17.3 15.6 82 1.9 SE 17 22 9 12 1022.1 1020.9 0.0
20/12:30am 19.2 17.3 15.7 80 2.1 SE 20 26 11 14 1022.5 1021.3 0.0
20/12:00am 19.2 18.3 15.9 81 2.0 ESE 15 20 8 11 1022.5 1021.3 0.0
 
Date/Time
EST
Temp
°C
App
Temp
°C
Dew
Point
°C
Rel
Hum
%
Delta-T
°C
Wind Press
QNH
hPa
Press
MSL
hPa
Rain since
9am
mm
Dir  Spd
km/h
Gust
km/h
Spd
kts
Gust
kts
19/11:30pm 19.5 18.0 15.4 77 2.5 SE 17 22 9 12 1022.6 1021.4 0.0
19/11:00pm 19.5 17.7 15.6 78 2.3 SE 19 24 10 13 1022.7 1021.5 0.0

Other formats

Comma delimited format used in spreadsheet applications
http://www.bom.gov.au/fwo/IDQ60801/IDQ60801.94542.axf

JavaScript Object Notation format (JSON) in row-major order
http://www.bom.gov.au/fwo/IDQ60801/IDQ60801.94542.json

Data quality

Most of these data are generated automatically and are frequently updated. Quality checks on data are not normally performed. It is possible for incorrect values to appear. Refer to information at About Latest Weather Observations and please check the disclaimer before using these data.